sensor_id;sensor_type;location;lat;lon;timestamp;pressure;altitude;pressure_sealevel;temperature;humidity
10060;BME280;5069;49.306;8.636;2022-07-18T00:02:55;101163.63;;;21.80;36.51
10060;BME280;5069;49.306;8.636;2022-07-18T00:05:57;101153.06;;;21.77;36.62
10060;BME280;5069;49.306;8.636;2022-07-18T00:08:58;101153.50;;;21.71;37.42
10060;BME280;5069;49.306;8.636;2022-07-18T00:11:59;101162.22;;;21.48;38.27
10060;BME280;5069;49.306;8.636;2022-07-18T00:15:02;101158.69;;;21.21;39.13
10060;BME280;5069;49.306;8.636;2022-07-18T00:18:04;101158.56;;;20.95;39.55
10060;BME280;5069;49.306;8.636;2022-07-18T00:21:05;101158.88;;;20.77;39.83
10060;BME280;5069;49.306;8.636;2022-07-18T00:24:07;101165.09;;;20.63;40.20
10060;BME280;5069;49.306;8.636;2022-07-18T00:27:08;101164.03;;;20.51;40.10
10060;BME280;5069;49.306;8.636;2022-07-18T00:30:11;101168.91;;;20.45;40.36
10060;BME280;5069;49.306;8.636;2022-07-18T00:33:12;101167.19;;;20.58;40.17
10060;BME280;5069;49.306;8.636;2022-07-18T00:36:14;101171.88;;;20.40;40.56
10060;BME280;5069;49.306;8.636;2022-07-18T00:39:15;101166.44;;;20.42;40.59
10060;BME280;5069;49.306;8.636;2022-07-18T00:42:16;101169.13;;;20.42;40.48
10060;BME280;5069;49.306;8.636;2022-07-18T00:45:18;101174.09;;;20.48;40.65
10060;BME280;5069;49.306;8.636;2022-07-18T00:48:20;101172.66;;;20.56;39.91
10060;BME280;5069;49.306;8.636;2022-07-18T00:51:22;101167.22;;;20.44;40.58
10060;BME280;5069;49.306;8.636;2022-07-18T00:54:24;101164.69;;;20.27;40.83
10060;BME280;5069;49.306;8.636;2022-07-18T00:57:27;101171.00;;;20.26;41.23
10060;BME280;5069;49.306;8.636;2022-07-18T01:00:28;101174.41;;;20.13;41.56
10060;BME280;5069;49.306;8.636;2022-07-18T01:03:49;101171.69;;;19.99;42.01
10060;BME280;5069;49.306;8.636;2022-07-18T01:06:50;101175.53;;;19.95;42.03
10060;BME280;5069;49.306;8.636;2022-07-18T01:09:52;101176.09;;;19.86;42.72
10060;BME280;5069;49.306;8.636;2022-07-18T01:12:54;101178.03;;;19.68;43.77
10060;BME280;5069;49.306;8.636;2022-07-18T01:15:55;101173.75;;;19.34;44.31
10060;BME280;5069;49.306;8.636;2022-07-18T01:18:57;101173.50;;;19.23;44.59
10060;BME280;5069;49.306;8.636;2022-07-18T01:21:58;101180.50;;;19.10;44.99
10060;BME280;5069;49.306;8.636;2022-07-18T01:25:00;101171.78;;;18.91;45.11
10060;BME280;5069;49.306;8.636;2022-07-18T01:28:02;101177.75;;;18.96;45.36
10060;BME280;5069;49.306;8.636;2022-07-18T01:31:04;101175.16;;;18.94;45.92
10060;BME280;5069;49.306;8.636;2022-07-18T01:34:05;101175.94;;;18.96;46.09
10060;BME280;5069;49.306;8.636;2022-07-18T01:37:07;101175.41;;;18.90;46.33
10060;BME280;5069;49.306;8.636;2022-07-18T01:40:10;101173.69;;;18.89;46.35
10060;BME280;5069;49.306;8.636;2022-07-18T01:43:12;101174.63;;;18.88;46.46
10060;BME280;5069;49.306;8.636;2022-07-18T01:46:13;101171.88;;;18.89;46.57
10060;BME280;5069;49.306;8.636;2022-07-18T01:49:15;101178.16;;;18.88;46.83
10060;BME280;5069;49.306;8.636;2022-07-18T01:52:16;101174.81;;;18.85;46.07
10060;BME280;5069;49.306;8.636;2022-07-18T01:55:19;101176.69;;;18.83;46.63
10060;BME280;5069;49.306;8.636;2022-07-18T01:58:20;101180.50;;;18.79;46.56
10060;BME280;5069;49.306;8.636;2022-07-18T02:01:22;101172.72;;;18.74;46.89
10060;BME280;5069;49.306;8.636;2022-07-18T02:04:24;101170.03;;;18.58;47.16
10060;BME280;5069;49.306;8.636;2022-07-18T02:07:45;101165.91;;;18.51;47.39
10060;BME280;5069;49.306;8.636;2022-07-18T02:10:47;101170.44;;;18.51;47.53
10060;BME280;5069;49.306;8.636;2022-07-18T02:13:49;101172.00;;;18.55;47.41
10060;BME280;5069;49.306;8.636;2022-07-18T02:16:51;101162.88;;;18.59;47.54
10060;BME280;5069;49.306;8.636;2022-07-18T02:19:52;101169.00;;;18.61;47.48
10060;BME280;5069;49.306;8.636;2022-07-18T02:22:53;101167.34;;;18.58;47.49
10060;BME280;5069;49.306;8.636;2022-07-18T02:25:55;101170.63;;;18.64;47.51
10060;BME280;5069;49.306;8.636;2022-07-18T02:28:57;101168.50;;;18.70;47.40
10060;BME280;5069;49.306;8.636;2022-07-18T02:31:59;101164.28;;;18.82;46.96
10060;BME280;5069;49.306;8.636;2022-07-18T02:35:00;101170.50;;;18.98;45.62
10060;BME280;5069;49.306;8.636;2022-07-18T02:38:02;101173.59;;;19.06;45.60
10060;BME280;5069;49.306;8.636;2022-07-18T02:41:04;101166.72;;;19.02;45.11
10060;BME280;5069;49.306;8.636;2022-07-18T02:44:05;101170.59;;;19.12;44.70
10060;BME280;5069;49.306;8.636;2022-07-18T02:47:07;101179.34;;;19.14;44.41
10060;BME280;5069;49.306;8.636;2022-07-18T02:50:09;101172.72;;;19.21;43.84
10060;BME280;5069;49.306;8.636;2022-07-18T02:53:11;101170.91;;;19.22;43.56
10060;BME280;5069;49.306;8.636;2022-07-18T02:56:12;101173.78;;;19.19;43.81
10060;BME280;5069;49.306;8.636;2022-07-18T02:59:14;101176.88;;;19.11;44.13
10060;BME280;5069;49.306;8.636;2022-07-18T03:02:15;101163.44;;;19.13;44.24
10060;BME280;5069;49.306;8.636;2022-07-18T03:05:17;101164.47;;;19.10;44.38
10060;BME280;5069;49.306;8.636;2022-07-18T03:08:18;101168.06;;;19.09;44.21
10060;BME280;5069;49.306;8.636;2022-07-18T03:11:20;101164.72;;;19.06;44.43
10060;BME280;5069;49.306;8.636;2022-07-18T03:14:22;101168.25;;;19.06;44.03
10060;BME280;5069;49.306;8.636;2022-07-18T03:17:23;101164.06;;;19.02;44.44
10060;BME280;5069;49.306;8.636;2022-07-18T03:20:25;101161.97;;;19.07;44.12
10060;BME280;5069;49.306;8.636;2022-07-18T03:23:26;101159.81;;;18.98;44.81
10060;BME280;5069;49.306;8.636;2022-07-18T03:26:28;101165.00;;;19.01;44.45
10060;BME280;5069;49.306;8.636;2022-07-18T03:29:30;101165.16;;;18.98;44.70
10060;BME280;5069;49.306;8.636;2022-07-18T03:32:31;101158.84;;;18.99;44.24
10060;BME280;5069;49.306;8.636;2022-07-18T03:35:33;101154.66;;;18.95;44.70
10060;BME280;5069;49.306;8.636;2022-07-18T03:38:34;101155.00;;;18.89;45.04
10060;BME280;5069;49.306;8.636;2022-07-18T03:41:37;101161.88;;;18.93;44.40
10060;BME280;5069;49.306;8.636;2022-07-18T03:44:39;101155.84;;;18.89;44.37
10060;BME280;5069;49.306;8.636;2022-07-18T03:47:41;101156.19;;;18.68;45.33
10060;BME280;5069;49.306;8.636;2022-07-18T03:50:42;101153.06;;;18.60;45.51
10060;BME280;5069;49.306;8.636;2022-07-18T03:53:44;101152.66;;;18.67;45.01
10060;BME280;5069;49.306;8.636;2022-07-18T03:56:45;101155.00;;;18.73;44.84
10060;BME280;5069;49.306;8.636;2022-07-18T03:59:47;101166.53;;;18.74;44.46
10060;BME280;5069;49.306;8.636;2022-07-18T04:02:48;101164.53;;;18.77;44.47
10060;BME280;5069;49.306;8.636;2022-07-18T04:05:50;101163.59;;;18.78;44.42
10060;BME280;5069;49.306;8.636;2022-07-18T04:08:51;101165.81;;;18.86;44.06
10060;BME280;5069;49.306;8.636;2022-07-18T04:11:53;101171.03;;;18.89;44.15
10060;BME280;5069;49.306;8.636;2022-07-18T04:14:55;101174.97;;;18.97;43.78
10060;BME280;5069;49.306;8.636;2022-07-18T04:17:56;101166.72;;;19.02;43.56
10060;BME280;5069;49.306;8.636;2022-07-18T04:20:58;101165.00;;;19.01;44.26
10060;BME280;5069;49.306;8.636;2022-07-18T04:23:59;101167.06;;;18.96;44.20
10060;BME280;5069;49.306;8.636;2022-07-18T04:27:00;101181.97;;;19.00;44.00
10060;BME280;5069;49.306;8.636;2022-07-18T04:30:03;101185.59;;;18.99;44.18
10060;BME280;5069;49.306;8.636;2022-07-18T04:33:06;101179.28;;;19.00;44.41
10060;BME280;5069;49.306;8.636;2022-07-18T04:36:08;101179.97;;;19.04;43.95
10060;BME280;5069;49.306;8.636;2022-07-18T04:39:10;101177.03;;;19.08;43.82
10060;BME280;5069;49.306;8.636;2022-07-18T04:42:11;101167.72;;;19.15;43.55
10060;BME280;5069;49.306;8.636;2022-07-18T04:45:13;101180.75;;;19.21;43.51
10060;BME280;5069;49.306;8.636;2022-07-18T04:48:15;101187.41;;;19.30;43.24
10060;BME280;5069;49.306;8.636;2022-07-18T04:51:16;101186.69;;;19.26;44.37
10060;BME280;5069;49.306;8.636;2022-07-18T04:54:18;101179.25;;;19.31;44.18
10060;BME280;5069;49.306;8.636;2022-07-18T04:57:19;101176.00;;;19.26;45.21
10060;BME280;5069;49.306;8.636;2022-07-18T05:00:23;101180.00;;;19.19;45.06
10060;BME280;5069;49.306;8.636;2022-07-18T05:03:25;101178.41;;;19.31;44.95
10060;BME280;5069;49.306;8.636;2022-07-18T05:06:26;101173.91;;;19.31;45.49
10060;BME280;5069;49.306;8.636;2022-07-18T05:09:28;101186.41;;;19.31;45.51
10060;BME280;5069;49.306;8.636;2022-07-18T05:12:29;101189.59;;;19.37;45.50
10060;BME280;5069;49.306;8.636;2022-07-18T05:15:31;101188.06;;;19.33;45.32
10060;BME280;5069;49.306;8.636;2022-07-18T05:18:32;101183.84;;;19.29;44.94
10060;BME280;5069;49.306;8.636;2022-07-18T05:21:34;101195.81;;;19.38;46.10
10060;BME280;5069;49.306;8.636;2022-07-18T05:24:35;101192.28;;;19.37;46.10
10060;BME280;5069;49.306;8.636;2022-07-18T05:27:37;101198.22;;;19.42;46.45
10060;BME280;5069;49.306;8.636;2022-07-18T05:30:39;101197.81;;;19.34;47.39
10060;BME280;5069;49.306;8.636;2022-07-18T05:33:40;101205.69;;;19.06;48.71
10060;BME280;5069;49.306;8.636;2022-07-18T05:36:42;101206.63;;;19.05;48.82
10060;BME280;5069;49.306;8.636;2022-07-18T05:39:43;101206.78;;;19.18;48.60
10060;BME280;5069;49.306;8.636;2022-07-18T05:42:45;101198.78;;;19.18;46.66
10060;BME280;5069;49.306;8.636;2022-07-18T05:45:55;101197.47;;;19.09;46.95
10060;BME280;5069;49.306;8.636;2022-07-18T05:48:57;101203.06;;;19.20;47.58
10060;BME280;5069;49.306;8.636;2022-07-18T05:51:59;101204.13;;;19.18;47.62
10060;BME280;5069;49.306;8.636;2022-07-18T05:55:00;101204.28;;;19.15;47.16
10060;BME280;5069;49.306;8.636;2022-07-18T05:58:02;101203.41;;;19.14;47.53
10060;BME280;5069;49.306;8.636;2022-07-18T06:01:03;101200.50;;;19.34;47.21
10060;BME280;5069;49.306;8.636;2022-07-18T06:04:05;101193.78;;;19.59;46.32
10060;BME280;5069;49.306;8.636;2022-07-18T06:07:06;101191.13;;;19.73;45.96
10060;BME280;5069;49.306;8.636;2022-07-18T06:10:09;101184.50;;;19.94;45.16
10060;BME280;5069;49.306;8.636;2022-07-18T06:13:10;101188.94;;;20.09;44.34
10060;BME280;5069;49.306;8.636;2022-07-18T06:16:12;101190.28;;;20.16;44.58
10060;BME280;5069;49.306;8.636;2022-07-18T06:19:13;101189.88;;;20.38;44.08
10060;BME280;5069;49.306;8.636;2022-07-18T06:22:24;101189.41;;;20.60;44.77
10060;BME280;5069;49.306;8.636;2022-07-18T06:25:27;101185.28;;;20.69;43.95
10060;BME280;5069;49.306;8.636;2022-07-18T06:28:29;101188.63;;;20.58;44.07
10060;BME280;5069;49.306;8.636;2022-07-18T06:31:30;101174.38;;;20.57;44.07
10060;BME280;5069;49.306;8.636;2022-07-18T06:34:32;101181.72;;;20.68;44.06
10060;BME280;5069;49.306;8.636;2022-07-18T06:37:34;101182.91;;;20.78;43.78
10060;BME280;5069;49.306;8.636;2022-07-18T06:40:36;101185.34;;;20.95;43.30
10060;BME280;5069;49.306;8.636;2022-07-18T06:43:38;101182.00;;;20.92;42.83
10060;BME280;5069;49.306;8.636;2022-07-18T06:46:40;101176.94;;;21.01;43.04
10060;BME280;5069;49.306;8.636;2022-07-18T06:49:42;101177.91;;;21.13;42.24
10060;BME280;5069;49.306;8.636;2022-07-18T06:52:46;101173.16;;;21.45;42.09
10060;BME280;5069;49.306;8.636;2022-07-18T06:55:47;101175.78;;;21.59;41.67
10060;BME280;5069;49.306;8.636;2022-07-18T06:58:49;101180.13;;;21.74;40.87
10060;BME280;5069;49.306;8.636;2022-07-18T07:01:51;101174.22;;;22.09;40.09
10060;BME280;5069;49.306;8.636;2022-07-18T07:04:53;101173.56;;;22.43;39.76
10060;BME280;5069;49.306;8.636;2022-07-18T07:07:54;101170.94;;;22.67;38.45
10060;BME280;5069;49.306;8.636;2022-07-18T07:10:55;101170.13;;;22.66;38.78
10060;BME280;5069;49.306;8.636;2022-07-18T07:13:57;101175.47;;;22.92;38.86
10060;BME280;5069;49.306;8.636;2022-07-18T07:16:59;101173.97;;;22.88;38.69
10060;BME280;5069;49.306;8.636;2022-07-18T07:20:00;101176.72;;;22.99;37.92
10060;BME280;5069;49.306;8.636;2022-07-18T07:23:02;101175.16;;;23.20;37.72
10060;BME280;5069;49.306;8.636;2022-07-18T07:26:08;101177.25;;;23.40;37.74
10060;BME280;5069;49.306;8.636;2022-07-18T07:29:10;101173.56;;;23.65;35.96
10060;BME280;5069;49.306;8.636;2022-07-18T07:32:11;101169.81;;;23.68;35.30
10060;BME280;5069;49.306;8.636;2022-07-18T07:35:15;101155.91;;;23.85;35.23
10060;BME280;5069;49.306;8.636;2022-07-18T07:38:17;101158.63;;;23.96;34.97
10060;BME280;5069;49.306;8.636;2022-07-18T07:41:23;101170.84;;;24.35;34.35
10060;BME280;5069;49.306;8.636;2022-07-18T07:44:25;101167.09;;;24.60;34.74
10060;BME280;5069;49.306;8.636;2022-07-18T07:47:26;101155.66;;;24.90;34.60
10060;BME280;5069;49.306;8.636;2022-07-18T07:50:30;101158.19;;;25.14;34.48
10060;BME280;5069;49.306;8.636;2022-07-18T07:53:32;101154.53;;;25.15;33.37
10060;BME280;5069;49.306;8.636;2022-07-18T07:56:33;101161.19;;;24.99;33.67
10060;BME280;5069;49.306;8.636;2022-07-18T07:59:35;101160.34;;;24.99;33.51
10060;BME280;5069;49.306;8.636;2022-07-18T08:02:37;101162.22;;;25.19;33.59
10060;BME280;5069;49.306;8.636;2022-07-18T08:05:44;101163.50;;;25.47;33.60
10060;BME280;5069;49.306;8.636;2022-07-18T08:08:46;101152.44;;;25.50;32.04
10060;BME280;5069;49.306;8.636;2022-07-18T08:11:48;101147.81;;;25.41;32.94
10060;BME280;5069;49.306;8.636;2022-07-18T08:14:49;101141.38;;;25.64;33.12
10060;BME280;5069;49.306;8.636;2022-07-18T08:17:53;101135.31;;;25.72;32.24
10060;BME280;5069;49.306;8.636;2022-07-18T08:20:54;101137.84;;;25.84;31.72
10060;BME280;5069;49.306;8.636;2022-07-18T08:23:56;101137.56;;;26.29;30.72
10060;BME280;5069;49.306;8.636;2022-07-18T08:27:05;101136.31;;;26.63;30.21
10060;BME280;5069;49.306;8.636;2022-07-18T08:30:07;101141.72;;;26.73;29.82
10060;BME280;5069;49.306;8.636;2022-07-18T08:33:09;101132.63;;;26.74;29.58
10060;BME280;5069;49.306;8.636;2022-07-18T08:36:11;101133.28;;;26.97;29.54
10060;BME280;5069;49.306;8.636;2022-07-18T08:39:12;101137.03;;;27.25;28.38
10060;BME280;5069;49.306;8.636;2022-07-18T08:42:15;101128.34;;;27.40;27.64
10060;BME280;5069;49.306;8.636;2022-07-18T08:45:20;101120.84;;;27.53;28.33
10060;BME280;5069;49.306;8.636;2022-07-18T08:48:23;101118.28;;;27.62;27.89
10060;BME280;5069;49.306;8.636;2022-07-18T08:51:25;101118.13;;;27.73;26.99
10060;BME280;5069;49.306;8.636;2022-07-18T08:54:26;101116.41;;;27.81;26.23
10060;BME280;5069;49.306;8.636;2022-07-18T08:57:28;101120.50;;;27.85;27.18
10060;BME280;5069;49.306;8.636;2022-07-18T09:00:30;101123.94;;;27.87;26.24
10060;BME280;5069;49.306;8.636;2022-07-18T09:03:39;101119.06;;;27.91;26.43
10060;BME280;5069;49.306;8.636;2022-07-18T09:06:46;101111.41;;;27.77;26.22
10060;BME280;5069;49.306;8.636;2022-07-18T09:09:52;101115.41;;;27.82;27.62
10060;BME280;5069;49.306;8.636;2022-07-18T09:12:56;101114.91;;;28.16;26.62
10060;BME280;5069;49.306;8.636;2022-07-18T09:16:12;101119.13;;;28.38;24.90
10060;BME280;5069;49.306;8.636;2022-07-18T09:19:15;101115.63;;;28.55;25.38
10060;BME280;5069;49.306;8.636;2022-07-18T09:22:19;101117.44;;;28.73;25.07
10060;BME280;5069;49.306;8.636;2022-07-18T09:25:22;101116.75;;;28.89;25.01
10060;BME280;5069;49.306;8.636;2022-07-18T09:28:27;101103.13;;;29.16;25.00
10060;BME280;5069;49.306;8.636;2022-07-18T09:31:30;101107.69;;;29.61;25.15
10060;BME280;5069;49.306;8.636;2022-07-18T09:37:35;101104.00;;;29.70;24.39
10060;BME280;5069;49.306;8.636;2022-07-18T09:40:47;101099.66;;;29.77;24.17
10060;BME280;5069;49.306;8.636;2022-07-18T09:43:48;101091.84;;;30.00;23.85
10060;BME280;5069;49.306;8.636;2022-07-18T09:47:03;101094.31;;;30.11;24.33
10060;BME280;5069;49.306;8.636;2022-07-18T09:50:19;101085.56;;;30.00;23.62
10060;BME280;5069;49.306;8.636;2022-07-18T09:53:23;101078.41;;;29.98;23.58
10060;BME280;5069;49.306;8.636;2022-07-18T09:56:36;101083.72;;;30.34;23.50
10060;BME280;5069;49.306;8.636;2022-07-18T09:59:40;101076.38;;;30.60;23.58
10060;BME280;5069;49.306;8.636;2022-07-18T10:02:49;101077.47;;;30.75;23.29
10060;BME280;5069;49.306;8.636;2022-07-18T10:05:55;101070.31;;;30.74;22.50
10060;BME280;5069;49.306;8.636;2022-07-18T10:08:57;101075.13;;;30.97;22.80
10060;BME280;5069;49.306;8.636;2022-07-18T10:11:59;101073.22;;;30.89;21.83
10060;BME280;5069;49.306;8.636;2022-07-18T10:15:03;101073.38;;;30.79;21.13
10060;BME280;5069;49.306;8.636;2022-07-18T10:18:08;101065.06;;;30.89;22.22
10060;BME280;5069;49.306;8.636;2022-07-18T10:21:13;101066.50;;;31.17;22.36
10060;BME280;5069;49.306;8.636;2022-07-18T10:24:17;101068.38;;;31.09;21.76
10060;BME280;5069;49.306;8.636;2022-07-18T10:27:20;101064.09;;;30.98;22.73
10060;BME280;5069;49.306;8.636;2022-07-18T10:30:34;101048.22;;;30.94;22.78
10060;BME280;5069;49.306;8.636;2022-07-18T10:39:45;101056.13;;;31.29;22.21
10060;BME280;5069;49.306;8.636;2022-07-18T10:47:06;101060.56;;;31.30;23.25
10060;BME280;5069;49.306;8.636;2022-07-18T10:50:09;101052.06;;;31.49;21.63
10060;BME280;5069;49.306;8.636;2022-07-18T10:53:11;101051.38;;;31.47;22.32
10060;BME280;5069;49.306;8.636;2022-07-18T10:56:12;101046.09;;;31.70;21.42
10060;BME280;5069;49.306;8.636;2022-07-18T10:59:23;101043.72;;;31.59;21.35
10060;BME280;5069;49.306;8.636;2022-07-18T11:02:32;101048.66;;;31.64;21.71
10060;BME280;5069;49.306;8.636;2022-07-18T11:08:42;101039.09;;;31.68;21.83
10060;BME280;5069;49.306;8.636;2022-07-18T11:15:20;101039.06;;;31.92;22.25
10060;BME280;5069;49.306;8.636;2022-07-18T11:18:21;101036.25;;;32.32;21.34
10060;BME280;5069;49.306;8.636;2022-07-18T11:21:31;101025.78;;;32.44;21.67
10060;BME280;5069;49.306;8.636;2022-07-18T11:24:40;101034.47;;;32.48;21.29
10060;BME280;5069;49.306;8.636;2022-07-18T11:27:43;101034.50;;;32.39;20.64
10060;BME280;5069;49.306;8.636;2022-07-18T11:30:44;101025.81;;;31.81;20.86
10060;BME280;5069;49.306;8.636;2022-07-18T11:33:48;101018.59;;;31.96;21.88
10060;BME280;5069;49.306;8.636;2022-07-18T11:36:50;101018.88;;;32.25;21.15
10060;BME280;5069;49.306;8.636;2022-07-18T11:39:51;101018.63;;;32.43;21.02
10060;BME280;5069;49.306;8.636;2022-07-18T11:42:56;101018.66;;;32.74;21.38
10060;BME280;5069;49.306;8.636;2022-07-18T11:46:02;101011.84;;;32.93;20.68
10060;BME280;5069;49.306;8.636;2022-07-18T11:49:05;101009.09;;;33.01;20.96
10060;BME280;5069;49.306;8.636;2022-07-18T11:52:07;101008.81;;;32.88;20.75
10060;BME280;5069;49.306;8.636;2022-07-18T11:55:11;101004.72;;;32.92;20.90
10060;BME280;5069;49.306;8.636;2022-07-18T11:58:14;100996.56;;;32.84;20.58
10060;BME280;5069;49.306;8.636;2022-07-18T12:01:16;100999.94;;;32.63;20.21
10060;BME280;5069;49.306;8.636;2022-07-18T12:04:22;100991.06;;;32.69;20.48
10060;BME280;5069;49.306;8.636;2022-07-18T12:07:24;100996.81;;;32.74;20.83
10060;BME280;5069;49.306;8.636;2022-07-18T12:10:26;100985.09;;;32.65;19.82
10060;BME280;5069;49.306;8.636;2022-07-18T12:13:39;100983.91;;;32.68;20.11
10060;BME280;5069;49.306;8.636;2022-07-18T12:16:46;100986.94;;;32.73;19.94
10060;BME280;5069;49.306;8.636;2022-07-18T12:19:48;100979.91;;;33.16;20.21
10060;BME280;5069;49.306;8.636;2022-07-18T12:23:09;100971.44;;;33.34;20.21
10060;BME280;5069;49.306;8.636;2022-07-18T12:26:30;100965.91;;;33.42;19.79
10060;BME280;5069;49.306;8.636;2022-07-18T12:29:54;100964.06;;;33.19;19.46
10060;BME280;5069;49.306;8.636;2022-07-18T12:32:57;100970.56;;;33.18;19.90
10060;BME280;5069;49.306;8.636;2022-07-18T12:36:00;100957.38;;;33.22;20.43
10060;BME280;5069;49.306;8.636;2022-07-18T12:39:02;100962.19;;;33.35;20.11
10060;BME280;5069;49.306;8.636;2022-07-18T12:42:06;100954.63;;;33.59;20.43
10060;BME280;5069;49.306;8.636;2022-07-18T12:45:09;100960.28;;;33.73;19.15
10060;BME280;5069;49.306;8.636;2022-07-18T12:48:12;100961.63;;;33.77;19.64
10060;BME280;5069;49.306;8.636;2022-07-18T12:51:13;100967.19;;;33.83;19.62
10060;BME280;5069;49.306;8.636;2022-07-18T12:54:15;100966.63;;;33.88;19.45
10060;BME280;5069;49.306;8.636;2022-07-18T12:57:17;100950.84;;;33.90;19.52
10060;BME280;5069;49.306;8.636;2022-07-18T13:00:19;100960.81;;;33.68;18.90
10060;BME280;5069;49.306;8.636;2022-07-18T13:03:21;100959.41;;;33.43;19.60
10060;BME280;5069;49.306;8.636;2022-07-18T13:06:22;100955.03;;;33.34;19.58
10060;BME280;5069;49.306;8.636;2022-07-18T13:09:24;100952.63;;;33.68;19.29
10060;BME280;5069;49.306;8.636;2022-07-18T13:12:25;100942.38;;;33.70;19.06
10060;BME280;5069;49.306;8.636;2022-07-18T13:15:27;100935.59;;;33.81;19.83
10060;BME280;5069;49.306;8.636;2022-07-18T13:18:28;100941.88;;;34.11;19.66
10060;BME280;5069;49.306;8.636;2022-07-18T13:21:29;100935.38;;;34.26;19.73
10060;BME280;5069;49.306;8.636;2022-07-18T13:24:32;100922.53;;;34.27;19.17
10060;BME280;5069;49.306;8.636;2022-07-18T13:27:37;100929.91;;;34.12;19.48
10060;BME280;5069;49.306;8.636;2022-07-18T13:30:39;100921.97;;;34.17;19.42
10060;BME280;5069;49.306;8.636;2022-07-18T13:33:40;100917.34;;;34.17;18.87
10060;BME280;5069;49.306;8.636;2022-07-18T13:36:42;100923.47;;;34.19;19.41
10060;BME280;5069;49.306;8.636;2022-07-18T13:39:43;100916.75;;;34.36;18.56
10060;BME280;5069;49.306;8.636;2022-07-18T13:42:45;100920.09;;;34.53;18.86
10060;BME280;5069;49.306;8.636;2022-07-18T13:45:46;100920.22;;;34.66;18.88
10060;BME280;5069;49.306;8.636;2022-07-18T13:48:48;100912.13;;;34.37;18.92
10060;BME280;5069;49.306;8.636;2022-07-18T13:51:51;100911.25;;;34.51;19.34
10060;BME280;5069;49.306;8.636;2022-07-18T13:54:52;100911.75;;;34.61;19.10
10060;BME280;5069;49.306;8.636;2022-07-18T13:57:56;100905.16;;;34.34;19.29
10060;BME280;5069;49.306;8.636;2022-07-18T14:00:58;100916.31;;;34.54;19.15
10060;BME280;5069;49.306;8.636;2022-07-18T14:04:00;100903.91;;;34.58;18.52
10060;BME280;5069;49.306;8.636;2022-07-18T14:07:02;100902.25;;;34.78;19.47
10060;BME280;5069;49.306;8.636;2022-07-18T14:10:04;100898.03;;;35.04;18.89
10060;BME280;5069;49.306;8.636;2022-07-18T14:13:05;100899.91;;;34.75;19.05
10060;BME280;5069;49.306;8.636;2022-07-18T14:16:07;100893.44;;;34.83;19.34
10060;BME280;5069;49.306;8.636;2022-07-18T14:19:08;100893.88;;;35.08;19.00
10060;BME280;5069;49.306;8.636;2022-07-18T14:22:10;100884.44;;;35.17;19.13
10060;BME280;5069;49.306;8.636;2022-07-18T14:25:15;100885.03;;;35.34;18.37
10060;BME280;5069;49.306;8.636;2022-07-18T14:28:18;100882.13;;;35.42;19.17
10060;BME280;5069;49.306;8.636;2022-07-18T14:31:19;100879.97;;;35.37;18.18
10060;BME280;5069;49.306;8.636;2022-07-18T14:34:21;100875.81;;;35.41;18.85
10060;BME280;5069;49.306;8.636;2022-07-18T14:37:22;100873.94;;;35.48;17.79
10060;BME280;5069;49.306;8.636;2022-07-18T14:40:24;100875.56;;;35.08;18.02
10060;BME280;5069;49.306;8.636;2022-07-18T14:43:26;100866.91;;;34.83;18.97
10060;BME280;5069;49.306;8.636;2022-07-18T14:46:28;100866.50;;;34.87;18.43
10060;BME280;5069;49.306;8.636;2022-07-18T14:49:30;100863.28;;;35.04;18.91
10060;BME280;5069;49.306;8.636;2022-07-18T14:52:31;100857.84;;;35.11;18.71
10060;BME280;5069;49.306;8.636;2022-07-18T14:55:33;100856.38;;;35.15;18.68
10060;BME280;5069;49.306;8.636;2022-07-18T14:58:35;100858.75;;;35.18;19.12
10060;BME280;5069;49.306;8.636;2022-07-18T15:01:36;100857.41;;;34.79;19.02
10060;BME280;5069;49.306;8.636;2022-07-18T15:04:38;100856.31;;;35.02;19.30
10060;BME280;5069;49.306;8.636;2022-07-18T15:07:39;100850.22;;;35.06;19.23
10060;BME280;5069;49.306;8.636;2022-07-18T15:10:41;100857.78;;;35.04;18.47
10060;BME280;5069;49.306;8.636;2022-07-18T15:13:42;100850.38;;;34.98;19.03
10060;BME280;5069;49.306;8.636;2022-07-18T15:16:44;100851.75;;;34.88;19.02
10060;BME280;5069;49.306;8.636;2022-07-18T15:19:45;100845.66;;;34.86;19.35
10060;BME280;5069;49.306;8.636;2022-07-18T15:22:49;100848.78;;;34.82;19.61
10060;BME280;5069;49.306;8.636;2022-07-18T15:25:51;100849.97;;;34.73;18.91
10060;BME280;5069;49.306;8.636;2022-07-18T15:28:56;100837.03;;;34.89;19.59
10060;BME280;5069;49.306;8.636;2022-07-18T15:31:57;100833.34;;;35.03;18.61
10060;BME280;5069;49.306;8.636;2022-07-18T15:34:59;100839.25;;;35.34;18.71
10060;BME280;5069;49.306;8.636;2022-07-18T15:38:00;100826.91;;;35.17;18.43
10060;BME280;5069;49.306;8.636;2022-07-18T15:41:06;100832.13;;;35.12;18.93
10060;BME280;5069;49.306;8.636;2022-07-18T15:44:09;100827.03;;;35.09;19.04
10060;BME280;5069;49.306;8.636;2022-07-18T15:47:11;100823.84;;;35.33;18.79
10060;BME280;5069;49.306;8.636;2022-07-18T15:50:13;100814.00;;;35.45;18.41
10060;BME280;5069;49.306;8.636;2022-07-18T15:53:15;100820.78;;;35.49;18.57
10060;BME280;5069;49.306;8.636;2022-07-18T15:56:17;100812.03;;;35.33;17.85
10060;BME280;5069;49.306;8.636;2022-07-18T15:59:18;100797.56;;;34.83;18.36
10060;BME280;5069;49.306;8.636;2022-07-18T16:02:19;100806.22;;;34.87;19.48
10060;BME280;5069;49.306;8.636;2022-07-18T16:05:22;100794.47;;;34.93;18.72
10060;BME280;5069;49.306;8.636;2022-07-18T16:08:26;100792.94;;;35.11;18.67
10060;BME280;5069;49.306;8.636;2022-07-18T16:11:30;100800.53;;;35.16;18.95
10060;BME280;5069;49.306;8.636;2022-07-18T16:14:34;100786.16;;;35.07;19.27
10060;BME280;5069;49.306;8.636;2022-07-18T16:17:35;100778.38;;;35.11;18.85
10060;BME280;5069;49.306;8.636;2022-07-18T16:20:37;100776.47;;;35.11;18.83
10060;BME280;5069;49.306;8.636;2022-07-18T16:23:39;100778.69;;;35.22;19.32
10060;BME280;5069;49.306;8.636;2022-07-18T16:26:42;100777.50;;;35.38;18.93
10060;BME280;5069;49.306;8.636;2022-07-18T16:29:43;100771.13;;;35.25;19.11